sensor_id;sensor_type;location;lat;lon;timestamp;temperature;humidity
11304;DHT22;5707;49.588;12.148;2023-03-01T00:01:59;-6.20;99.90
11304;DHT22;5707;49.588;12.148;2023-03-01T00:04:24;-6.20;99.90
11304;DHT22;5707;49.588;12.148;2023-03-01T00:06:50;-6.40;99.90
11304;DHT22;5707;49.588;12.148;2023-03-01T00:09:16;-6.40;99.90
11304;DHT22;5707;49.588;12.148;2023-03-01T00:11:42;-6.50;99.90
11304;DHT22;5707;49.588;12.148;2023-03-01T00:14:08;-6.50;99.90
11304;DHT22;5707;49.588;12.148;2023-03-01T00:16:39;-6.50;99.90
11304;DHT22;5707;49.588;12.148;2023-03-01T00:19:06;-6.50;99.90
11304;DHT22;5707;49.588;12.148;2023-03-01T00:21:32;-6.50;99.90
11304;DHT22;5707;49.588;12.148;2023-03-01T00:24:00;-6.60;99.90
11304;DHT22;5707;49.588;12.148;2023-03-01T00:26:27;-6.60;99.90
11304;DHT22;5707;49.588;12.148;2023-03-01T00:28:53;-6.70;99.90
11304;DHT22;5707;49.588;12.148;2023-03-01T00:31:26;-6.70;99.90
11304;DHT22;5707;49.588;12.148;2023-03-01T00:34:03;-6.70;99.90
11304;DHT22;5707;49.588;12.148;2023-03-01T00:36:31;-6.70;99.90
11304;DHT22;5707;49.588;12.148;2023-03-01T00:38:57;-6.70;99.90
11304;DHT22;5707;49.588;12.148;2023-03-01T00:41:23;-6.80;99.90
11304;DHT22;5707;49.588;12.148;2023-03-01T00:43:50;-6.80;99.90
11304;DHT22;5707;49.588;12.148;2023-03-01T00:46:20;-6.80;99.90
11304;DHT22;5707;49.588;12.148;2023-03-01T00:48:46;-6.70;99.90
11304;DHT22;5707;49.588;12.148;2023-03-01T00:51:15;-6.50;99.90
11304;DHT22;5707;49.588;12.148;2023-03-01T00:53:40;-6.40;99.90
11304;DHT22;5707;49.588;12.148;2023-03-01T00:56:08;-6.30;99.90
11304;DHT22;5707;49.588;12.148;2023-03-01T00:58:35;-6.30;99.90
11304;DHT22;5707;49.588;12.148;2023-03-01T01:01:01;-6.30;99.90
11304;DHT22;5707;49.588;12.148;2023-03-01T01:03:32;-6.20;99.90
11304;DHT22;5707;49.588;12.148;2023-03-01T01:05:57;-6.10;99.90
11304;DHT22;5707;49.588;12.148;2023-03-01T01:08:23;-5.90;99.90
11304;DHT22;5707;49.588;12.148;2023-03-01T01:10:48;-5.80;99.90
11304;DHT22;5707;49.588;12.148;2023-03-01T01:13:14;-5.70;99.90
11304;DHT22;5707;49.588;12.148;2023-03-01T01:15:39;-5.70;99.90
11304;DHT22;5707;49.588;12.148;2023-03-01T01:18:06;-5.80;99.90
11304;DHT22;5707;49.588;12.148;2023-03-01T01:20:31;-5.90;99.90
11304;DHT22;5707;49.588;12.148;2023-03-01T01:22:57;-6.00;99.90
11304;DHT22;5707;49.588;12.148;2023-03-01T01:25:23;-6.00;99.90
11304;DHT22;5707;49.588;12.148;2023-03-01T01:27:50;-6.00;99.90
11304;DHT22;5707;49.588;12.148;2023-03-01T01:30:16;-5.90;99.90
11304;DHT22;5707;49.588;12.148;2023-03-01T01:32:41;-5.80;99.90
11304;DHT22;5707;49.588;12.148;2023-03-01T01:35:07;-5.80;99.90
11304;DHT22;5707;49.588;12.148;2023-03-01T01:37:33;-5.80;99.90
11304;DHT22;5707;49.588;12.148;2023-03-01T01:39:59;-5.90;99.90
11304;DHT22;5707;49.588;12.148;2023-03-01T01:42:26;-5.90;99.90
11304;DHT22;5707;49.588;12.148;2023-03-01T01:45:30;-6.00;99.90
11304;DHT22;5707;49.588;12.148;2023-03-01T01:48:06;-6.10;99.90
11304;DHT22;5707;49.588;12.148;2023-03-01T01:50:38;-6.10;99.90
11304;DHT22;5707;49.588;12.148;2023-03-01T01:53:17;-6.10;99.90
11304;DHT22;5707;49.588;12.148;2023-03-01T01:55:47;-6.20;99.90
11304;DHT22;5707;49.588;12.148;2023-03-01T01:58:17;-6.10;99.90
11304;DHT22;5707;49.588;12.148;2023-03-01T02:00:43;-6.10;99.90
11304;DHT22;5707;49.588;12.148;2023-03-01T02:03:12;-6.10;99.90
11304;DHT22;5707;49.588;12.148;2023-03-01T02:05:50;-6.10;99.90
11304;DHT22;5707;49.588;12.148;2023-03-01T02:08:19;-6.10;99.90
11304;DHT22;5707;49.588;12.148;2023-03-01T02:10:46;-6.20;99.90
11304;DHT22;5707;49.588;12.148;2023-03-01T02:13:13;-6.30;99.90
11304;DHT22;5707;49.588;12.148;2023-03-01T02:15:40;-6.20;99.90
11304;DHT22;5707;49.588;12.148;2023-03-01T02:18:07;-6.20;99.90
11304;DHT22;5707;49.588;12.148;2023-03-01T02:23:11;-6.20;99.90
11304;DHT22;5707;49.588;12.148;2023-03-01T02:28:25;-6.10;99.90
11304;DHT22;5707;49.588;12.148;2023-03-01T02:30:51;-6.10;99.90
11304;DHT22;5707;49.588;12.148;2023-03-01T02:33:38;-6.10;99.90
11304;DHT22;5707;49.588;12.148;2023-03-01T02:36:08;-6.00;99.90
11304;DHT22;5707;49.588;12.148;2023-03-01T02:38:34;-5.90;99.90
11304;DHT22;5707;49.588;12.148;2023-03-01T02:41:02;-5.80;99.90
11304;DHT22;5707;49.588;12.148;2023-03-01T02:43:31;-5.90;99.90
11304;DHT22;5707;49.588;12.148;2023-03-01T02:46:02;-6.00;99.90
11304;DHT22;5707;49.588;12.148;2023-03-01T02:48:39;-6.10;99.90
11304;DHT22;5707;49.588;12.148;2023-03-01T02:51:17;-6.10;99.90
11304;DHT22;5707;49.588;12.148;2023-03-01T02:53:53;-6.10;99.90
11304;DHT22;5707;49.588;12.148;2023-03-01T02:56:22;-6.00;99.90
11304;DHT22;5707;49.588;12.148;2023-03-01T02:58:48;-5.80;99.90
11304;DHT22;5707;49.588;12.148;2023-03-01T03:01:17;-5.80;99.90
11304;DHT22;5707;49.588;12.148;2023-03-01T03:03:43;-6.00;99.90
11304;DHT22;5707;49.588;12.148;2023-03-01T03:06:09;-6.10;99.90
11304;DHT22;5707;49.588;12.148;2023-03-01T03:08:35;-6.30;99.90
11304;DHT22;5707;49.588;12.148;2023-03-01T03:11:00;-6.40;99.90
11304;DHT22;5707;49.588;12.148;2023-03-01T03:13:26;-6.50;99.90
11304;DHT22;5707;49.588;12.148;2023-03-01T03:15:54;-6.60;99.90
11304;DHT22;5707;49.588;12.148;2023-03-01T03:18:20;-6.60;99.90
11304;DHT22;5707;49.588;12.148;2023-03-01T03:20:46;-6.70;99.90
11304;DHT22;5707;49.588;12.148;2023-03-01T03:23:12;-6.80;99.90
11304;DHT22;5707;49.588;12.148;2023-03-01T03:25:38;-6.80;99.90
11304;DHT22;5707;49.588;12.148;2023-03-01T03:28:04;-6.70;99.90
11304;DHT22;5707;49.588;12.148;2023-03-01T03:30:36;-6.80;99.90
11304;DHT22;5707;49.588;12.148;2023-03-01T03:33:04;-6.90;99.90
11304;DHT22;5707;49.588;12.148;2023-03-01T03:35:39;-6.80;99.90
11304;DHT22;5707;49.588;12.148;2023-03-01T03:38:07;-6.80;99.90
11304;DHT22;5707;49.588;12.148;2023-03-01T03:40:42;-6.70;99.90
11304;DHT22;5707;49.588;12.148;2023-03-01T03:43:11;-6.70;99.90
11304;DHT22;5707;49.588;12.148;2023-03-01T03:45:37;-6.80;99.90
11304;DHT22;5707;49.588;12.148;2023-03-01T03:48:05;-6.80;99.90
11304;DHT22;5707;49.588;12.148;2023-03-01T03:50:32;-6.80;99.90
11304;DHT22;5707;49.588;12.148;2023-03-01T03:52:57;-6.60;99.90
11304;DHT22;5707;49.588;12.148;2023-03-01T03:55:25;-6.70;99.90
11304;DHT22;5707;49.588;12.148;2023-03-01T03:57:57;-6.70;99.90
11304;DHT22;5707;49.588;12.148;2023-03-01T04:00:23;-6.80;99.90
11304;DHT22;5707;49.588;12.148;2023-03-01T04:02:49;-6.90;99.90
11304;DHT22;5707;49.588;12.148;2023-03-01T04:05:18;-6.80;99.90
11304;DHT22;5707;49.588;12.148;2023-03-01T04:07:44;-6.90;99.90
11304;DHT22;5707;49.588;12.148;2023-03-01T04:10:15;-7.00;99.90
11304;DHT22;5707;49.588;12.148;2023-03-01T04:12:41;-6.80;99.90
11304;DHT22;5707;49.588;12.148;2023-03-01T04:15:09;-6.70;99.90
11304;DHT22;5707;49.588;12.148;2023-03-01T04:17:43;-6.80;99.90
11304;DHT22;5707;49.588;12.148;2023-03-01T04:20:10;-7.00;99.90
11304;DHT22;5707;49.588;12.148;2023-03-01T04:22:37;-7.00;99.90
11304;DHT22;5707;49.588;12.148;2023-03-01T04:25:03;-7.10;99.90
11304;DHT22;5707;49.588;12.148;2023-03-01T04:27:34;-7.10;99.90
11304;DHT22;5707;49.588;12.148;2023-03-01T04:30:00;-7.00;99.90
11304;DHT22;5707;49.588;12.148;2023-03-01T04:32:25;-6.90;99.90
11304;DHT22;5707;49.588;12.148;2023-03-01T04:34:51;-7.00;99.90
11304;DHT22;5707;49.588;12.148;2023-03-01T04:37:16;-7.10;99.90
11304;DHT22;5707;49.588;12.148;2023-03-01T04:39:42;-7.00;99.90
11304;DHT22;5707;49.588;12.148;2023-03-01T04:42:12;-6.70;99.90
11304;DHT22;5707;49.588;12.148;2023-03-01T04:44:38;-6.70;99.90
11304;DHT22;5707;49.588;12.148;2023-03-01T04:47:04;-6.80;99.90
11304;DHT22;5707;49.588;12.148;2023-03-01T04:49:29;-7.00;99.90
11304;DHT22;5707;49.588;12.148;2023-03-01T04:51:55;-7.10;99.90
11304;DHT22;5707;49.588;12.148;2023-03-01T04:54:23;-7.20;99.90
11304;DHT22;5707;49.588;12.148;2023-03-01T04:56:49;-7.10;99.90
11304;DHT22;5707;49.588;12.148;2023-03-01T04:59:14;-7.10;99.90
11304;DHT22;5707;49.588;12.148;2023-03-01T05:01:40;-7.00;99.90
11304;DHT22;5707;49.588;12.148;2023-03-01T05:04:08;-7.10;99.90
11304;DHT22;5707;49.588;12.148;2023-03-01T05:06:38;-7.20;99.90
11304;DHT22;5707;49.588;12.148;2023-03-01T05:09:04;-7.10;99.90
11304;DHT22;5707;49.588;12.148;2023-03-01T05:11:30;-7.10;99.90
11304;DHT22;5707;49.588;12.148;2023-03-01T05:13:59;-7.20;99.90
11304;DHT22;5707;49.588;12.148;2023-03-01T05:16:24;-7.30;99.90
11304;DHT22;5707;49.588;12.148;2023-03-01T05:18:50;-7.40;99.90
11304;DHT22;5707;49.588;12.148;2023-03-01T05:21:16;-7.40;99.90
11304;DHT22;5707;49.588;12.148;2023-03-01T05:23:42;-7.50;99.90
11304;DHT22;5707;49.588;12.148;2023-03-01T05:26:08;-7.50;99.90
11304;DHT22;5707;49.588;12.148;2023-03-01T05:28:35;-7.20;99.90
11304;DHT22;5707;49.588;12.148;2023-03-01T05:31:00;-7.00;99.90
11304;DHT22;5707;49.588;12.148;2023-03-01T05:33:26;-7.00;99.90
11304;DHT22;5707;49.588;12.148;2023-03-01T05:35:52;-7.10;99.90
11304;DHT22;5707;49.588;12.148;2023-03-01T05:38:20;-7.10;99.90
11304;DHT22;5707;49.588;12.148;2023-03-01T05:40:47;-7.30;99.90
11304;DHT22;5707;49.588;12.148;2023-03-01T05:43:14;-7.40;99.90
11304;DHT22;5707;49.588;12.148;2023-03-01T05:45:41;-7.50;99.90
11304;DHT22;5707;49.588;12.148;2023-03-01T05:48:08;-7.50;99.90
11304;DHT22;5707;49.588;12.148;2023-03-01T05:50:42;-7.60;99.90
11304;DHT22;5707;49.588;12.148;2023-03-01T05:53:17;-7.60;99.90
11304;DHT22;5707;49.588;12.148;2023-03-01T05:55:43;-7.60;99.90
11304;DHT22;5707;49.588;12.148;2023-03-01T05:58:15;-7.50;99.90
11304;DHT22;5707;49.588;12.148;2023-03-01T06:00:42;-7.60;99.90
11304;DHT22;5707;49.588;12.148;2023-03-01T06:03:10;-7.60;99.90
11304;DHT22;5707;49.588;12.148;2023-03-01T06:05:36;-7.60;99.90
11304;DHT22;5707;49.588;12.148;2023-03-01T06:08:02;-7.50;99.90
11304;DHT22;5707;49.588;12.148;2023-03-01T06:10:28;-7.50;99.90
11304;DHT22;5707;49.588;12.148;2023-03-01T06:12:54;-7.40;99.90
11304;DHT22;5707;49.588;12.148;2023-03-01T06:15:20;-7.30;99.90
11304;DHT22;5707;49.588;12.148;2023-03-01T06:17:46;-7.30;99.90
11304;DHT22;5707;49.588;12.148;2023-03-01T06:20:30;-7.20;99.90
11304;DHT22;5707;49.588;12.148;2023-03-01T06:22:56;-7.10;99.90
11304;DHT22;5707;49.588;12.148;2023-03-01T06:25:23;-7.10;99.90
11304;DHT22;5707;49.588;12.148;2023-03-01T06:27:50;-7.00;99.90
11304;DHT22;5707;49.588;12.148;2023-03-01T06:30:18;-6.70;99.90
11304;DHT22;5707;49.588;12.148;2023-03-01T06:32:45;-6.60;99.90
11304;DHT22;5707;49.588;12.148;2023-03-01T06:35:12;-6.60;99.90
11304;DHT22;5707;49.588;12.148;2023-03-01T06:37:38;-6.40;99.90
11304;DHT22;5707;49.588;12.148;2023-03-01T06:40:05;-6.40;99.90
11304;DHT22;5707;49.588;12.148;2023-03-01T06:42:35;-6.40;99.90
11304;DHT22;5707;49.588;12.148;2023-03-01T06:45:01;-6.30;99.90
11304;DHT22;5707;49.588;12.148;2023-03-01T06:47:27;-6.20;99.90
11304;DHT22;5707;49.588;12.148;2023-03-01T06:49:52;-6.10;99.90
11304;DHT22;5707;49.588;12.148;2023-03-01T06:52:18;-5.80;99.90
11304;DHT22;5707;49.588;12.148;2023-03-01T06:54:43;-5.70;99.90
11304;DHT22;5707;49.588;12.148;2023-03-01T06:57:09;-5.40;99.90
11304;DHT22;5707;49.588;12.148;2023-03-01T06:59:34;-5.30;99.90
11304;DHT22;5707;49.588;12.148;2023-03-01T07:02:00;-5.20;99.90
11304;DHT22;5707;49.588;12.148;2023-03-01T07:04:25;-5.00;99.90
11304;DHT22;5707;49.588;12.148;2023-03-01T07:06:53;-4.60;99.90
11304;DHT22;5707;49.588;12.148;2023-03-01T07:09:21;-3.90;99.90
11304;DHT22;5707;49.588;12.148;2023-03-01T07:11:48;-3.50;99.90
11304;DHT22;5707;49.588;12.148;2023-03-01T07:14:13;-3.40;99.90
11304;DHT22;5707;49.588;12.148;2023-03-01T07:16:39;-3.40;99.90
11304;DHT22;5707;49.588;12.148;2023-03-01T07:19:04;-3.40;99.90
11304;DHT22;5707;49.588;12.148;2023-03-01T07:21:31;-3.40;99.90
11304;DHT22;5707;49.588;12.148;2023-03-01T07:23:56;-3.30;99.90
11304;DHT22;5707;49.588;12.148;2023-03-01T07:26:22;-3.10;99.90
11304;DHT22;5707;49.588;12.148;2023-03-01T07:28:48;-3.10;99.90
11304;DHT22;5707;49.588;12.148;2023-03-01T07:31:13;-3.00;99.90
11304;DHT22;5707;49.588;12.148;2023-03-01T07:33:39;-3.00;99.90
11304;DHT22;5707;49.588;12.148;2023-03-01T07:36:05;-2.90;99.90
11304;DHT22;5707;49.588;12.148;2023-03-01T07:38:31;-2.80;99.90
11304;DHT22;5707;49.588;12.148;2023-03-01T07:40:59;-2.70;99.90
11304;DHT22;5707;49.588;12.148;2023-03-01T07:43:25;-2.60;99.90
11304;DHT22;5707;49.588;12.148;2023-03-01T07:45:50;-2.60;99.90
11304;DHT22;5707;49.588;12.148;2023-03-01T07:48:16;-2.50;99.90
11304;DHT22;5707;49.588;12.148;2023-03-01T07:50:42;-2.50;99.90
11304;DHT22;5707;49.588;12.148;2023-03-01T07:53:09;-2.40;99.90
11304;DHT22;5707;49.588;12.148;2023-03-01T07:55:34;-2.30;99.90
11304;DHT22;5707;49.588;12.148;2023-03-01T07:58:00;-2.20;99.90
11304;DHT22;5707;49.588;12.148;2023-03-01T08:00:25;-2.20;99.90
11304;DHT22;5707;49.588;12.148;2023-03-01T08:02:51;-2.10;99.90
11304;DHT22;5707;49.588;12.148;2023-03-01T08:05:17;-2.00;99.90
11304;DHT22;5707;49.588;12.148;2023-03-01T08:07:42;-1.90;99.90
11304;DHT22;5707;49.588;12.148;2023-03-01T08:10:09;-1.80;99.90
11304;DHT22;5707;49.588;12.148;2023-03-01T08:12:34;-1.80;99.90
11304;DHT22;5707;49.588;12.148;2023-03-01T08:15:00;-1.70;99.90
11304;DHT22;5707;49.588;12.148;2023-03-01T08:17:26;-1.60;99.90
11304;DHT22;5707;49.588;12.148;2023-03-01T08:19:51;-1.50;99.90
11304;DHT22;5707;49.588;12.148;2023-03-01T08:22:17;-1.50;99.90
11304;DHT22;5707;49.588;12.148;2023-03-01T08:24:42;-1.40;99.90
11304;DHT22;5707;49.588;12.148;2023-03-01T08:27:08;-1.30;99.90
11304;DHT22;5707;49.588;12.148;2023-03-01T08:29:34;-1.20;99.90
11304;DHT22;5707;49.588;12.148;2023-03-01T08:31:59;-1.10;99.90
11304;DHT22;5707;49.588;12.148;2023-03-01T08:34:25;-1.00;99.90
11304;DHT22;5707;49.588;12.148;2023-03-01T08:36:51;-0.90;99.90
11304;DHT22;5707;49.588;12.148;2023-03-01T08:39:19;-0.80;99.90
11304;DHT22;5707;49.588;12.148;2023-03-01T08:41:45;-0.70;99.90
11304;DHT22;5707;49.588;12.148;2023-03-01T08:44:13;-0.60;99.90
11304;DHT22;5707;49.588;12.148;2023-03-01T08:46:40;-0.50;99.90
11304;DHT22;5707;49.588;12.148;2023-03-01T08:49:08;-0.40;99.90
11304;DHT22;5707;49.588;12.148;2023-03-01T08:51:35;-0.30;99.90
11304;DHT22;5707;49.588;12.148;2023-03-01T08:54:31;-0.20;99.90
11304;DHT22;5707;49.588;12.148;2023-03-01T08:56:57;0.00;99.90
11304;DHT22;5707;49.588;12.148;2023-03-01T08:59:25;0.10;99.90
11304;DHT22;5707;49.588;12.148;2023-03-01T09:01:50;0.20;99.90
11304;DHT22;5707;49.588;12.148;2023-03-01T09:04:16;0.30;99.90
11304;DHT22;5707;49.588;12.148;2023-03-01T09:06:42;0.40;99.90
11304;DHT22;5707;49.588;12.148;2023-03-01T09:09:14;0.50;99.90
11304;DHT22;5707;49.588;12.148;2023-03-01T09:11:40;0.60;99.90
11304;DHT22;5707;49.588;12.148;2023-03-01T09:14:06;0.70;99.90
11304;DHT22;5707;49.588;12.148;2023-03-01T09:16:32;0.90;99.90
11304;DHT22;5707;49.588;12.148;2023-03-01T09:19:01;1.00;99.90
11304;DHT22;5707;49.588;12.148;2023-03-01T09:21:27;1.10;99.90
11304;DHT22;5707;49.588;12.148;2023-03-01T09:23:53;1.20;99.90
11304;DHT22;5707;49.588;12.148;2023-03-01T09:26:20;1.30;99.90
11304;DHT22;5707;49.588;12.148;2023-03-01T09:28:48;1.40;99.90
11304;DHT22;5707;49.588;12.148;2023-03-01T09:31:15;1.40;99.90
11304;DHT22;5707;49.588;12.148;2023-03-01T09:33:42;1.50;99.90
11304;DHT22;5707;49.588;12.148;2023-03-01T09:36:14;1.60;99.90
11304;DHT22;5707;49.588;12.148;2023-03-01T09:38:40;1.70;99.90
11304;DHT22;5707;49.588;12.148;2023-03-01T09:42:12;1.80;99.90
11304;DHT22;5707;49.588;12.148;2023-03-01T09:47:03;1.90;99.90
11304;DHT22;5707;49.588;12.148;2023-03-01T09:49:38;2.00;99.90
11304;DHT22;5707;49.588;12.148;2023-03-01T09:55:01;2.20;99.90
11304;DHT22;5707;49.588;12.148;2023-03-01T09:57:41;2.20;99.90
11304;DHT22;5707;49.588;12.148;2023-03-01T10:03:19;2.20;99.90
11304;DHT22;5707;49.588;12.148;2023-03-01T10:06:18;2.30;99.90
11304;DHT22;5707;49.588;12.148;2023-03-01T10:09:16;2.40;99.90
11304;DHT22;5707;49.588;12.148;2023-03-01T10:11:47;2.50;99.90
11304;DHT22;5707;49.588;12.148;2023-03-01T10:14:36;2.50;99.90
11304;DHT22;5707;49.588;12.148;2023-03-01T10:17:07;2.50;99.90
11304;DHT22;5707;49.588;12.148;2023-03-01T10:19:44;2.60;99.90
11304;DHT22;5707;49.588;12.148;2023-03-01T10:24:48;2.70;99.90
11304;DHT22;5707;49.588;12.148;2023-03-01T10:28:05;2.70;99.90
11304;DHT22;5707;49.588;12.148;2023-03-01T10:30:35;2.80;99.90
11304;DHT22;5707;49.588;12.148;2023-03-01T10:33:10;2.90;99.90
11304;DHT22;5707;49.588;12.148;2023-03-01T10:35:38;2.90;99.90
11304;DHT22;5707;49.588;12.148;2023-03-01T10:38:11;3.00;99.90
11304;DHT22;5707;49.588;12.148;2023-03-01T10:40:56;3.00;99.90
11304;DHT22;5707;49.588;12.148;2023-03-01T10:43:45;2.90;99.90
11304;DHT22;5707;49.588;12.148;2023-03-01T10:51:37;3.30;99.90
11304;DHT22;5707;49.588;12.148;2023-03-01T10:54:04;3.40;99.90
11304;DHT22;5707;49.588;12.148;2023-03-01T10:56:55;3.50;99.90
11304;DHT22;5707;49.588;12.148;2023-03-01T10:59:36;3.50;99.90
11304;DHT22;5707;49.588;12.148;2023-03-01T11:02:22;3.60;99.90
11304;DHT22;5707;49.588;12.148;2023-03-01T11:04:58;3.60;99.90
11304;DHT22;5707;49.588;12.148;2023-03-01T11:07:24;3.70;99.90
11304;DHT22;5707;49.588;12.148;2023-03-01T11:09:50;3.70;99.90
11304;DHT22;5707;49.588;12.148;2023-03-01T11:12:16;3.80;99.90
11304;DHT22;5707;49.588;12.148;2023-03-01T11:14:50;3.80;99.90
11304;DHT22;5707;49.588;12.148;2023-03-01T11:17:30;3.90;99.90
11304;DHT22;5707;49.588;12.148;2023-03-01T11:20:13;4.00;99.90
11304;DHT22;5707;49.588;12.148;2023-03-01T11:22:48;4.10;99.90
11304;DHT22;5707;49.588;12.148;2023-03-01T11:25:17;4.00;99.90
11304;DHT22;5707;49.588;12.148;2023-03-01T11:27:45;4.00;99.90
11304;DHT22;5707;49.588;12.148;2023-03-01T11:30:24;4.10;99.90
11304;DHT22;5707;49.588;12.148;2023-03-01T11:35:27;4.30;99.90
11304;DHT22;5707;49.588;12.148;2023-03-01T11:38:15;4.30;99.90
11304;DHT22;5707;49.588;12.148;2023-03-01T11:40:46;4.30;99.90
11304;DHT22;5707;49.588;12.148;2023-03-01T11:46:28;4.40;99.90
11304;DHT22;5707;49.588;12.148;2023-03-01T11:58:04;4.50;99.90
11304;DHT22;5707;49.588;12.148;2023-03-01T12:08:38;4.70;99.90
11304;DHT22;5707;49.588;12.148;2023-03-01T12:11:22;4.80;99.90
11304;DHT22;5707;49.588;12.148;2023-03-01T12:22:32;4.90;99.90
11304;DHT22;5707;49.588;12.148;2023-03-01T12:25:26;4.90;99.90
11304;DHT22;5707;49.588;12.148;2023-03-01T12:33:57;5.00;99.90
11304;DHT22;5707;49.588;12.148;2023-03-01T12:39:55;5.00;99.90
11304;DHT22;5707;49.588;12.148;2023-03-01T12:50:47;5.10;99.90
11304;DHT22;5707;49.588;12.148;2023-03-01T12:55:56;5.10;99.90
11304;DHT22;5707;49.588;12.148;2023-03-01T13:01:25;5.20;99.90
11304;DHT22;5707;49.588;12.148;2023-03-01T13:04:03;5.20;99.90
11304;DHT22;5707;49.588;12.148;2023-03-01T13:12:00;5.40;99.90
11304;DHT22;5707;49.588;12.148;2023-03-01T13:16:52;5.50;99.90
11304;DHT22;5707;49.588;12.148;2023-03-01T13:19:23;5.50;99.90
11304;DHT22;5707;49.588;12.148;2023-03-01T13:21:51;5.50;99.90
11304;DHT22;5707;49.588;12.148;2023-03-01T13:29:47;5.50;99.90
11304;DHT22;5707;49.588;12.148;2023-03-01T13:32:24;5.50;99.90
11304;DHT22;5707;49.588;12.148;2023-03-01T13:37:46;5.50;99.90
11304;DHT22;5707;49.588;12.148;2023-03-01T13:42:47;5.50;99.90
11304;DHT22;5707;49.588;12.148;2023-03-01T13:48:03;5.50;99.90
11304;DHT22;5707;49.588;12.148;2023-03-01T13:50:43;5.60;99.90
11304;DHT22;5707;49.588;12.148;2023-03-01T13:53:16;5.60;99.90
11304;DHT22;5707;49.588;12.148;2023-03-01T13:55:45;5.70;99.90
11304;DHT22;5707;49.588;12.148;2023-03-01T13:58:23;5.70;99.90
11304;DHT22;5707;49.588;12.148;2023-03-01T14:01:03;5.60;99.90
11304;DHT22;5707;49.588;12.148;2023-03-01T14:03:30;5.60;99.90
11304;DHT22;5707;49.588;12.148;2023-03-01T14:06:14;5.60;99.90
11304;DHT22;5707;49.588;12.148;2023-03-01T14:08:41;5.50;99.90
11304;DHT22;5707;49.588;12.148;2023-03-01T14:19:19;5.60;99.90
11304;DHT22;5707;49.588;12.148;2023-03-01T14:21:47;5.60;99.90
11304;DHT22;5707;49.588;12.148;2023-03-01T14:24:21;5.50;99.90
11304;DHT22;5707;49.588;12.148;2023-03-01T14:26:48;5.50;99.90
11304;DHT22;5707;49.588;12.148;2023-03-01T14:29:35;5.50;99.90
11304;DHT22;5707;49.588;12.148;2023-03-01T14:32:22;5.50;99.90
11304;DHT22;5707;49.588;12.148;2023-03-01T14:34:50;5.50;99.90
11304;DHT22;5707;49.588;12.148;2023-03-01T14:37:23;5.50;99.90
11304;DHT22;5707;49.588;12.148;2023-03-01T14:39:49;5.50;99.90
11304;DHT22;5707;49.588;12.148;2023-03-01T14:42:16;5.50;99.90
11304;DHT22;5707;49.588;12.148;2023-03-01T14:44:53;5.50;99.90
11304;DHT22;5707;49.588;12.148;2023-03-01T14:47:30;5.50;99.90
11304;DHT22;5707;49.588;12.148;2023-03-01T14:49:59;5.50;99.90
11304;DHT22;5707;49.588;12.148;2023-03-01T14:52:47;5.40;99.90
11304;DHT22;5707;49.588;12.148;2023-03-01T14:55:17;5.40;99.90
11304;DHT22;5707;49.588;12.148;2023-03-01T14:57:46;5.40;99.90
11304;DHT22;5707;49.588;12.148;2023-03-01T15:00:30;5.40;99.90
11304;DHT22;5707;49.588;12.148;2023-03-01T15:03:01;5.30;99.90
11304;DHT22;5707;49.588;12.148;2023-03-01T15:05:30;5.30;99.90
11304;DHT22;5707;49.588;12.148;2023-03-01T15:08:01;5.20;99.90
11304;DHT22;5707;49.588;12.148;2023-03-01T15:10:30;5.10;99.90
11304;DHT22;5707;49.588;12.148;2023-03-01T15:13:12;5.10;99.90
11304;DHT22;5707;49.588;12.148;2023-03-01T15:15:42;5.10;99.90
11304;DHT22;5707;49.588;12.148;2023-03-01T15:18:28;5.10;99.90
11304;DHT22;5707;49.588;12.148;2023-03-01T15:20:56;5.10;99.90
11304;DHT22;5707;49.588;12.148;2023-03-01T15:23:30;5.00;99.90
11304;DHT22;5707;49.588;12.148;2023-03-01T15:25:56;5.00;99.90
11304;DHT22;5707;49.588;12.148;2023-03-01T15:28:32;4.90;99.90
11304;DHT22;5707;49.588;12.148;2023-03-01T15:31:43;4.80;99.90
11304;DHT22;5707;49.588;12.148;2023-03-01T15:33:50;4.80;99.90
11304;DHT22;5707;49.588;12.148;2023-03-01T15:47:41;4.70;99.90
11304;DHT22;5707;49.588;12.148;2023-03-01T15:50:22;4.60;99.90
11304;DHT22;5707;49.588;12.148;2023-03-01T15:52:49;4.50;99.90
11304;DHT22;5707;49.588;12.148;2023-03-01T15:55:33;4.40;99.90
11304;DHT22;5707;49.588;12.148;2023-03-01T15:58:03;4.30;99.90
11304;DHT22;5707;49.588;12.148;2023-03-01T16:00:29;4.20;99.90
11304;DHT22;5707;49.588;12.148;2023-03-01T16:02:54;3.90;99.90
11304;DHT22;5707;49.588;12.148;2023-03-01T16:05:22;3.80;99.90
11304;DHT22;5707;49.588;12.148;2023-03-01T16:07:49;3.90;99.90
11304;DHT22;5707;49.588;12.148;2023-03-01T16:10:15;3.80;99.90
11304;DHT22;5707;49.588;12.148;2023-03-01T16:12:40;3.70;99.90
11304;DHT22;5707;49.588;12.148;2023-03-01T16:17:48;3.50;99.90
11304;DHT22;5707;49.588;12.148;2023-03-01T16:20:15;3.50;99.90
11304;DHT22;5707;49.588;12.148;2023-03-01T16:22:44;3.50;99.90
11304;DHT22;5707;49.588;12.148;2023-03-01T16:25:14;3.40;99.90
11304;DHT22;5707;49.588;12.148;2023-03-01T16:27:45;3.20;99.90
11304;DHT22;5707;49.588;12.148;2023-03-01T16:30:12;3.00;99.90
11304;DHT22;5707;49.588;12.148;2023-03-01T16:32:42;3.00;99.90
11304;DHT22;5707;49.588;12.148;2023-03-01T16:35:10;2.90;99.90
11304;DHT22;5707;49.588;12.148;2023-03-01T16:37:36;2.70;99.90
11304;DHT22;5707;49.588;12.148;2023-03-01T16:40:04;2.50;99.90
11304;DHT22;5707;49.588;12.148;2023-03-01T16:42:36;2.40;99.90
11304;DHT22;5707;49.588;12.148;2023-03-01T16:45:02;2.20;99.90
11304;DHT22;5707;49.588;12.148;2023-03-01T16:47:28;2.10;99.90
11304;DHT22;5707;49.588;12.148;2023-03-01T16:49:54;2.00;99.90
11304;DHT22;5707;49.588;12.148;2023-03-01T16:52:21;2.10;99.90
11304;DHT22;5707;49.588;12.148;2023-03-01T16:54:47;2.10;99.90
11304;DHT22;5707;49.588;12.148;2023-03-01T16:57:13;2.20;99.90
11304;DHT22;5707;49.588;12.148;2023-03-01T16:59:39;2.20;99.90
11304;DHT22;5707;49.588;12.148;2023-03-01T17:02:05;2.20;99.90
11304;DHT22;5707;49.588;12.148;2023-03-01T17:04:35;2.10;99.90
11304;DHT22;5707;49.588;12.148;2023-03-01T17:07:00;1.90;99.90
11304;DHT22;5707;49.588;12.148;2023-03-01T17:09:26;1.90;99.90
11304;DHT22;5707;49.588;12.148;2023-03-01T17:11:51;1.90;99.90
11304;DHT22;5707;49.588;12.148;2023-03-01T17:14:17;1.90;99.90
11304;DHT22;5707;49.588;12.148;2023-03-01T17:16:43;1.80;99.90
11304;DHT22;5707;49.588;12.148;2023-03-01T17:19:09;1.50;99.90
11304;DHT22;5707;49.588;12.148;2023-03-01T17:21:34;1.40;99.90
11304;DHT22;5707;49.588;12.148;2023-03-01T17:24:00;1.50;99.90
11304;DHT22;5707;49.588;12.148;2023-03-01T17:26:26;1.50;99.90
11304;DHT22;5707;49.588;12.148;2023-03-01T17:28:54;1.40;99.90
11304;DHT22;5707;49.588;12.148;2023-03-01T17:31:20;1.30;99.90
11304;DHT22;5707;49.588;12.148;2023-03-01T17:33:47;1.30;99.90
11304;DHT22;5707;49.588;12.148;2023-03-01T17:36:14;1.20;99.90
11304;DHT22;5707;49.588;12.148;2023-03-01T17:38:40;1.10;99.90
11304;DHT22;5707;49.588;12.148;2023-03-01T17:41:06;1.10;99.90
11304;DHT22;5707;49.588;12.148;2023-03-01T17:43:31;1.10;99.90
11304;DHT22;5707;49.588;12.148;2023-03-01T17:45:59;1.20;99.90
11304;DHT22;5707;49.588;12.148;2023-03-01T17:48:25;1.40;99.90
11304;DHT22;5707;49.588;12.148;2023-03-01T17:50:50;1.50;99.90
11304;DHT22;5707;49.588;12.148;2023-03-01T17:53:16;1.60;99.90